Time;durP1;ratioP1;P1;durP2;ratioP2;P2;SDS_P1;SDS_P2;PMS_P1;PMS_P2;Temp;Humidity;BMP_temperature;BMP_pressure;BME280_temperature;BME280_humidity;BME280_pressure;Samples;Min_cycle;Max_cycle;Signal;HPM_P1;HPM_P2
2021/08/27 00:01:03;;;;;;;9.03;2.70;;;13.90;99.90;;;;;;5061897;28;20203;-72
2021/08/27 00:03:28;;;;;;;8.87;2.97;;;13.90;99.90;;;;;;5042455;28;20193;-72
2021/08/27 00:05:54;;;;;;;4.70;2.40;;;13.80;99.90;;;;;;5059230;28;20178;-73
2021/08/27 00:08:19;;;;;;;5.20;2.50;;;13.90;99.90;;;;;;5058882;28;20208;-72
2021/08/27 00:10:45;;;;;;;7.20;2.80;;;13.90;99.90;;;;;;5058807;28;20202;-72
2021/08/27 00:13:11;;;;;;;3.60;2.30;;;13.90;99.90;;;;;;5058861;28;20236;-72
2021/08/27 00:15:37;;;;;;;4.97;2.67;;;13.90;99.90;;;;;;5059563;28;20186;-72
2021/08/27 00:18:03;;;;;;;9.07;2.50;;;13.90;99.90;;;;;;5059226;28;20445;-72
2021/08/27 00:20:29;;;;;;;4.33;2.60;;;13.90;99.90;;;;;;5059002;28;20515;-72
2021/08/27 00:22:55;;;;;;;4.10;2.97;;;13.80;99.90;;;;;;5058895;28;20492;-72
2021/08/27 00:25:20;;;;;;;9.70;4.23;;;13.80;99.90;;;;;;5041413;28;20424;-73
2021/08/27 00:27:46;;;;;;;8.13;3.23;;;13.90;99.90;;;;;;5059047;28;20232;-72
2021/08/27 00:30:12;;;;;;;6.30;3.10;;;13.80;99.90;;;;;;5058574;28;20190;-72
2021/08/27 00:32:38;;;;;;;5.10;3.30;;;13.90;99.90;;;;;;5041289;28;20182;-73
2021/08/27 00:35:05;;;;;;;10.10;3.17;;;13.80;99.90;;;;;;5058464;28;20459;-72
2021/08/27 00:37:35;;;;;;;5.47;3.37;;;13.90;99.90;;;;;;5059570;28;20420;-72
2021/08/27 00:40:01;;;;;;;4.13;2.80;;;13.90;99.90;;;;;;5060958;28;20448;-72
2021/08/27 00:42:27;;;;;;;5.70;3.03;;;13.90;99.90;;;;;;5059273;28;20480;-72
2021/08/27 00:44:53;;;;;;;8.40;3.30;;;13.80;99.90;;;;;;5060678;28;20409;-72
2021/08/27 00:47:19;;;;;;;4.20;2.53;;;13.80;99.90;;;;;;5061485;28;20179;-72
2021/08/27 00:49:45;;;;;;;6.60;2.90;;;13.80;99.90;;;;;;5058679;28;20415;-72
2021/08/27 00:52:11;;;;;;;8.83;3.07;;;13.70;99.90;;;;;;5058988;28;20174;-72
2021/08/27 00:54:39;;;;;;;6.10;2.87;;;13.70;99.90;;;;;;5059339;28;20794;-72
2021/08/27 00:57:07;;;;;;;5.13;3.13;;;13.70;99.90;;;;;;5058630;28;20166;-72
2021/08/27 00:59:34;;;;;;;5.47;2.07;;;13.70;99.90;;;;;;5058228;28;20413;-72
2021/08/27 01:02:00;;;;;;;4.80;2.47;;;13.70;99.90;;;;;;5062197;28;20464;-72
2021/08/27 01:04:26;;;;;;;4.40;2.67;;;13.70;99.90;;;;;;5061745;28;20417;-72
2021/08/27 01:06:59;;;;;;;4.23;2.50;;;13.60;99.90;;;;;;5061982;28;20235;-72
2021/08/27 01:09:42;;;;;;;4.37;2.70;;;13.60;99.90;;;;;;5061096;28;20169;-72
2021/08/27 01:12:16;;;;;;;10.53;2.70;;;13.60;99.90;;;;;;5061639;28;20424;-72
2021/08/27 01:14:53;;;;;;;6.80;2.73;;;13.60;99.90;;;;;;5057711;28;20416;-72
2021/08/27 01:17:28;;;;;;;6.23;2.90;;;13.50;99.90;;;;;;5041282;28;20424;-73
2021/08/27 01:20:12;;;;;;;5.27;2.73;;;13.50;99.90;;;;;;5057836;28;20488;-73
2021/08/27 01:23:00;;;;;;;5.80;3.10;;;13.50;99.90;;;;;;5055880;28;20479;-72
2021/08/27 01:25:27;;;;;;;3.57;2.70;;;13.40;99.90;;;;;;5057431;28;20498;-72
2021/08/27 01:27:54;;;;;;;16.20;4.13;;;13.40;99.90;;;;;;5059463;28;20400;-72
2021/08/27 01:30:39;;;;;;;6.27;2.93;;;13.40;99.90;;;;;;5059175;28;20945;-72
2021/08/27 01:33:11;;;;;;;3.93;2.53;;;13.40;99.90;;;;;;5059310;28;20803;-72
2021/08/27 01:35:38;;;;;;;4.50;2.10;;;13.50;99.90;;;;;;5062098;28;20440;-72
2021/08/27 01:38:08;;;;;;;4.23;2.63;;;13.50;99.90;;;;;;5051398;28;20932;-72
2021/08/27 01:40:37;;;;;;;4.80;2.40;;;13.40;99.90;;;;;;5041790;28;20421;-72
2021/08/27 01:43:07;;;;;;;6.40;2.57;;;13.50;99.90;;;;;;5041457;28;20457;-72
2021/08/27 01:45:34;;;;;;;8.77;3.10;;;13.40;99.90;;;;;;5061920;28;20436;-73
2021/08/27 01:48:00;;;;;;;4.53;2.83;;;13.40;99.90;;;;;;5064149;28;20495;-73
2021/08/27 01:50:26;;;;;;;5.80;2.37;;;13.30;99.90;;;;;;5064922;28;20428;-72
2021/08/27 01:52:52;;;;;;;4.83;2.73;;;13.30;99.90;;;;;;5043806;28;20412;-72
2021/08/27 01:55:20;;;;;;;5.33;2.30;;;13.30;99.90;;;;;;5047450;28;20423;-72
2021/08/27 01:57:48;;;;;;;4.10;2.37;;;13.40;99.90;;;;;;5064938;28;20889;-73
2021/08/27 02:00:14;;;;;;;5.77;2.43;;;13.30;99.90;;;;;;5043665;28;20465;-73
2021/08/27 02:02:41;;;;;;;2.83;2.13;;;13.30;99.90;;;;;;5061035;28;20463;-73
2021/08/27 02:05:07;;;;;;;7.07;2.50;;;13.40;99.90;;;;;;5061043;28;20404;-72
2021/08/27 02:07:34;;;;;;;4.10;2.50;;;13.40;99.90;;;;;;5060650;28;20981;-72
2021/08/27 02:10:02;;;;;;;5.73;2.80;;;13.40;99.90;;;;;;5060775;28;20424;-72
2021/08/27 02:12:27;;;;;;;5.33;2.30;;;13.50;99.90;;;;;;5061242;28;20432;-72
2021/08/27 02:14:55;;;;;;;7.43;2.30;;;13.50;99.90;;;;;;5043251;28;20490;-72
2021/08/27 02:17:22;;;;;;;12.60;2.93;;;13.50;99.90;;;;;;5060873;28;20186;-72
2021/08/27 02:19:48;;;;;;;6.63;2.80;;;13.60;99.90;;;;;;5060763;28;20447;-72
2021/08/27 02:22:16;;;;;;;4.10;2.30;;;13.60;99.90;;;;;;5042626;28;20835;-72
2021/08/27 02:24:48;;;;;;;6.07;2.57;;;13.60;99.90;;;;;;5062862;28;20163;-72
2021/08/27 02:27:15;;;;;;;7.10;2.50;;;13.60;99.90;;;;;;5063207;28;20460;-72
2021/08/27 02:29:43;;;;;;;2.67;2.40;;;13.60;99.90;;;;;;5061786;28;20431;-73
2021/08/27 02:32:11;;;;;;;10.77;3.20;;;13.60;99.90;;;;;;5061627;28;20420;-72
2021/08/27 02:34:41;;;;;;;4.60;2.10;;;13.60;99.90;;;;;;5063108;28;20416;-72
2021/08/27 02:37:07;;;;;;;4.30;2.40;;;13.60;99.90;;;;;;5063557;28;20757;-72
2021/08/27 02:39:33;;;;;;;4.53;2.17;;;13.50;99.90;;;;;;5061631;28;20527;-73
2021/08/27 02:41:59;;;;;;;3.70;2.70;;;13.60;99.90;;;;;;5060540;28;20969;-72
2021/08/27 02:44:25;;;;;;;5.33;2.60;;;13.60;99.90;;;;;;5060749;28;20186;-73
2021/08/27 02:46:51;;;;;;;4.93;2.47;;;13.70;99.90;;;;;;5042814;28;20409;-72
2021/08/27 02:49:17;;;;;;;3.90;3.00;;;13.70;99.90;;;;;;5060255;28;20419;-73
2021/08/27 02:52:29;;;;;;;5.33;3.80;;;13.60;99.90;;;;;;5060020;28;20647;-72
2021/08/27 02:55:35;;;;;;;5.20;2.23;;;13.70;99.90;;;;;;4998263;28;20197;-72
2021/08/27 02:58:03;;;;;;;11.67;3.40;;;13.80;99.90;;;;;;4981943;28;20490;-72
2021/08/27 03:00:33;;;;;;;5.32;2.70;;;13.80;99.90;;;;;;4998293;28;21026;-72
2021/08/27 03:03:03;;;;;;;3.90;2.77;;;13.80;99.90;;;;;;4998362;28;20196;-72
2021/08/27 03:05:37;;;;;;;4.97;2.20;;;13.80;99.90;;;;;;4998338;28;20427;-72
2021/08/27 03:08:07;;;;;;;8.60;3.20;;;13.90;99.90;;;;;;4999200;28;20870;-72
2021/08/27 03:10:42;;;;;;;7.40;2.90;;;13.90;99.90;;;;;;4998853;28;21048;-72
2021/08/27 03:13:11;;;;;;;3.43;2.57;;;13.80;99.90;;;;;;5000076;28;20434;-72
2021/08/27 03:16:15;;;;;;;5.67;2.70;;;13.80;99.90;;;;;;4999741;28;20423;-72
2021/08/27 03:18:48;;;;;;;6.70;3.30;;;13.70;99.90;;;;;;4960164;29;20558;-72
2021/08/27 03:21:20;;;;;;;5.40;2.57;;;13.80;99.90;;;;;;4961743;28;20441;-72
2021/08/27 03:23:49;;;;;;;7.30;2.50;;;13.80;99.90;;;;;;4959911;29;20574;-72
2021/08/27 03:26:20;;;;;;;3.80;2.60;;;13.90;99.90;;;;;;4960167;29;20438;-72
2021/08/27 03:28:57;;;;;;;6.43;2.90;;;13.90;99.90;;;;;;4959899;28;20849;-72
2021/08/27 03:31:24;;;;;;;4.80;2.30;;;13.70;99.90;;;;;;5016887;28;20445;-72
2021/08/27 03:33:52;;;;;;;4.83;2.60;;;13.80;99.90;;;;;;5020419;28;20426;-72
2021/08/27 03:36:17;;;;;;;5.77;2.63;;;13.70;99.90;;;;;;5018500;28;20465;-72
2021/08/27 03:38:43;;;;;;;9.90;3.27;;;13.70;99.90;;;;;;5010297;28;20833;-72
2021/08/27 03:41:09;;;;;;;5.70;3.20;;;13.70;99.90;;;;;;4999732;28;20222;-72
2021/08/27 03:43:39;;;;;;;5.80;2.60;;;13.60;99.90;;;;;;4998392;28;20471;-72
2021/08/27 03:46:06;;;;;;;5.33;2.70;;;13.60;99.90;;;;;;4998798;28;20427;-72
2021/08/27 03:48:33;;;;;;;5.00;2.73;;;13.60;99.90;;;;;;5018795;28;20423;-73
2021/08/27 03:51:00;;;;;;;7.53;3.07;;;13.60;99.90;;;;;;5017802;28;20525;-72
2021/08/27 03:53:26;;;;;;;3.87;2.50;;;13.60;99.90;;;;;;5052060;28;20412;-72
2021/08/27 03:55:53;;;;;;;6.27;3.33;;;13.60;99.90;;;;;;5043266;28;20424;-72
2021/08/27 03:58:22;;;;;;;4.93;2.90;;;13.60;99.90;;;;;;5060346;28;20429;-72
2021/08/27 04:00:49;;;;;;;2.87;2.60;;;13.70;99.90;;;;;;5059600;28;20468;-73
2021/08/27 04:03:14;;;;;;;3.83;2.17;;;13.70;99.90;;;;;;5060094;28;20457;-72
2021/08/27 04:05:56;;;;;;;6.50;2.53;;;13.70;99.90;;;;;;5060868;28;20424;-72
2021/08/27 04:08:23;;;;;;;8.73;2.90;;;13.70;99.90;;;;;;5060581;28;20591;-72
2021/08/27 04:10:48;;;;;;;5.33;2.40;;;13.70;99.90;;;;;;5061579;28;20441;-72
2021/08/27 04:13:14;;;;;;;5.53;2.50;;;13.60;99.90;;;;;;5061881;28;20436;-72
2021/08/27 04:15:39;;;;;;;7.30;2.60;;;13.60;99.90;;;;;;5061451;28;20534;-72
2021/08/27 04:18:05;;;;;;;4.60;2.93;;;13.60;99.90;;;;;;5041631;28;20226;-72
2021/08/27 04:20:30;;;;;;;7.43;2.67;;;13.60;99.90;;;;;;5060552;28;20193;-72
2021/08/27 04:22:56;;;;;;;6.80;2.20;;;13.70;99.90;;;;;;5061494;28;20201;-72
2021/08/27 04:25:21;;;;;;;7.77;2.63;;;13.70;99.90;;;;;;5059419;28;20178;-72
2021/08/27 04:27:47;;;;;;;7.32;3.30;;;13.70;99.90;;;;;;5058211;28;20415;-72
2021/08/27 04:30:13;;;;;;;6.80;2.87;;;13.80;99.90;;;;;;5057457;28;20194;-73
2021/08/27 04:32:38;;;;;;;4.50;2.30;;;13.70;99.90;;;;;;5058750;28;20209;-73
2021/08/27 04:35:04;;;;;;;5.90;2.60;;;13.70;99.90;;;;;;5041692;28;20190;-73
2021/08/27 04:37:30;;;;;;;7.70;3.27;;;13.60;99.90;;;;;;5058252;28;20186;-73
2021/08/27 04:39:56;;;;;;;6.37;2.80;;;13.60;99.90;;;;;;5059583;28;20811;-73
2021/08/27 04:42:21;;;;;;;6.20;2.77;;;13.60;99.90;;;;;;5048453;28;20465;-73
2021/08/27 04:44:47;;;;;;;7.97;3.47;;;13.50;99.90;;;;;;5055250;28;20198;-73
2021/08/27 04:47:13;;;;;;;7.90;3.13;;;13.60;99.90;;;;;;5052931;28;20245;-73
2021/08/27 04:49:38;;;;;;;10.43;3.20;;;13.60;99.90;;;;;;5058003;28;20166;-74
2021/08/27 04:52:04;;;;;;;5.73;2.67;;;13.70;99.90;;;;;;5048502;28;20551;-73
2021/08/27 04:54:30;;;;;;;5.90;2.93;;;13.70;99.90;;;;;;5048800;28;20281;-72
2021/08/27 04:56:55;;;;;;;4.80;2.93;;;13.70;99.90;;;;;;5046400;28;20455;-73
2021/08/27 04:59:21;;;;;;;7.40;3.40;;;13.70;99.90;;;;;;5038601;28;20594;-72
2021/08/27 05:01:46;;;;;;;4.80;2.57;;;13.70;99.90;;;;;;5057394;28;20201;-73
2021/08/27 05:04:12;;;;;;;4.40;2.93;;;13.70;99.90;;;;;;5054940;28;20178;-73
2021/08/27 05:06:37;;;;;;;4.83;2.90;;;13.80;99.90;;;;;;5054382;28;20265;-74
2021/08/27 05:09:03;;;;;;;6.13;3.07;;;13.90;99.90;;;;;;5037267;28;20207;-65
2021/08/27 05:11:29;;;;;;;6.73;3.30;;;13.90;99.90;;;;;;5046478;28;20198;-67
2021/08/27 05:14:00;;;;;;;4.93;3.07;;;13.90;99.90;;;;;;5036010;28;20181;-69
2021/08/27 05:16:27;;;;;;;7.70;3.60;;;14.00;99.90;;;;;;5036365;28;20197;-70
2021/08/27 05:18:52;;;;;;;8.43;3.53;;;14.00;99.90;;;;;;5054319;28;20434;-68
2021/08/27 05:21:18;;;;;;;8.30;5.03;;;14.20;99.90;;;;;;5054654;28;20210;-66
2021/08/27 05:23:43;;;;;;;7.23;4.37;;;14.30;99.90;;;;;;5045182;28;20236;-66
2021/08/27 05:26:09;;;;;;;8.20;4.73;;;14.40;99.90;;;;;;5052901;28;20178;-66
2021/08/27 05:28:35;;;;;;;8.30;4.90;;;14.60;99.90;;;;;;5053383;28;20522;-67
2021/08/27 05:31:00;;;;;;;8.23;3.97;;;14.60;99.90;;;;;;5044543;28;20221;-66
2021/08/27 05:33:26;;;;;;;8.60;6.00;;;14.60;99.90;;;;;;5033462;28;20189;-66
2021/08/27 05:35:51;;;;;;;9.93;6.60;;;14.60;99.90;;;;;;5053395;28;20231;-65
2021/08/27 05:38:17;;;;;;;9.83;6.63;;;14.50;99.90;;;;;;5053149;28;20170;-65
2021/08/27 05:40:42;;;;;;;12.77;7.07;;;14.50;99.90;;;;;;5052971;28;20225;-65
2021/08/27 05:43:08;;;;;;;10.37;7.43;;;14.40;99.90;;;;;;5053473;28;20202;-66
2021/08/27 05:45:33;;;;;;;12.50;8.80;;;14.40;99.90;;;;;;5053699;28;20224;-66
2021/08/27 05:47:59;;;;;;;15.47;8.40;;;14.30;99.90;;;;;;5053236;28;20178;-66
2021/08/27 05:50:25;;;;;;;17.20;11.17;;;14.30;99.90;;;;;;5035328;28;20267;-66
2021/08/27 05:52:50;;;;;;;15.20;11.73;;;14.30;99.90;;;;;;5046527;28;20647;-73
2021/08/27 05:55:16;;;;;;;16.00;11.20;;;14.40;99.90;;;;;;5046589;28;20434;-73
2021/08/27 05:57:42;;;;;;;13.40;11.30;;;14.50;99.90;;;;;;5032312;28;20178;-72
2021/08/27 06:00:09;;;;;;;12.70;10.00;;;14.30;99.90;;;;;;5050327;28;20210;-73
2021/08/27 06:02:35;;;;;;;13.63;10.20;;;14.30;99.90;;;;;;5033124;28;20213;-73
2021/08/27 06:05:00;;;;;;;13.67;9.80;;;14.40;99.90;;;;;;5065781;28;20478;-73
2021/08/27 06:07:26;;;;;;;11.37;7.20;;;14.50;99.90;;;;;;5032171;28;20436;-72
2021/08/27 06:09:52;;;;;;;8.40;6.73;;;14.40;99.90;;;;;;5056730;28;20439;-72
2021/08/27 06:12:18;;;;;;;7.63;6.60;;;14.30;99.90;;;;;;5029604;28;20491;-73
2021/08/27 06:14:43;;;;;;;9.13;6.63;;;14.30;99.90;;;;;;5046019;28;20620;-73
2021/08/27 06:17:09;;;;;;;9.63;5.40;;;14.40;99.90;;;;;;5048965;28;20185;-73
2021/08/27 06:19:35;;;;;;;11.90;6.73;;;14.40;99.90;;;;;;5052022;28;20185;-73
2021/08/27 06:22:01;;;;;;;8.57;7.60;;;14.40;99.90;;;;;;5050787;28;20604;-73
2021/08/27 06:24:27;;;;;;;10.23;7.60;;;14.30;99.90;;;;;;5045065;28;20480;-74
2021/08/27 06:26:52;;;;;;;10.20;7.93;;;14.40;99.90;;;;;;5047122;28;20424;-72
2021/08/27 06:29:18;;;;;;;12.23;9.87;;;14.50;99.90;;;;;;5052003;28;20178;-75
2021/08/27 06:31:43;;;;;;;13.43;10.80;;;14.40;99.90;;;;;;5050874;28;20514;-72
2021/08/27 06:34:09;;;;;;;16.47;10.63;;;14.40;99.90;;;;;;5054072;28;20213;-73
2021/08/27 06:36:35;;;;;;;12.93;9.90;;;14.40;99.90;;;;;;5059895;28;20209;-75
2021/08/27 06:39:00;;;;;;;14.80;10.20;;;14.40;99.90;;;;;;5067732;28;20216;-74
2021/08/27 06:41:26;;;;;;;13.83;9.93;;;14.30;99.90;;;;;;5072260;28;20197;-75
2021/08/27 06:43:51;;;;;;;11.50;9.53;;;14.30;99.90;;;;;;5058149;28;20206;-73
2021/08/27 06:46:21;;;;;;;11.53;9.00;;;14.30;99.90;;;;;;5062008;28;20165;-72
2021/08/27 06:48:48;;;;;;;14.23;9.33;;;14.30;99.90;;;;;;5057844;28;20186;-73
2021/08/27 06:51:14;;;;;;;11.37;10.03;;;14.30;99.90;;;;;;5051109;28;20460;-72
2021/08/27 06:53:40;;;;;;;13.37;10.67;;;14.40;99.90;;;;;;5051408;28;20509;-74
2021/08/27 06:56:05;;;;;;;14.50;10.87;;;14.40;99.90;;;;;;5051925;28;20901;-74
2021/08/27 06:58:31;;;;;;;14.93;11.60;;;14.60;99.90;;;;;;5051905;28;20241;-73
2021/08/27 07:00:59;;;;;;;14.83;10.70;;;14.60;99.90;;;;;;5051469;28;20206;-73
2021/08/27 07:03:25;;;;;;;14.43;11.57;;;14.60;99.90;;;;;;5051286;28;20460;-73
2021/08/27 07:05:50;;;;;;;14.87;11.17;;;14.60;99.90;;;;;;5052593;28;20428;-74
2021/08/27 07:08:16;;;;;;;16.20;12.20;;;14.70;99.90;;;;;;5052012;28;20287;-74
2021/08/27 07:10:42;;;;;;;13.57;10.70;;;14.80;99.90;;;;;;5065905;28;20709;-74
2021/08/27 07:13:09;;;;;;;14.20;11.77;;;14.90;99.90;;;;;;5054424;28;20600;-74
2021/08/27 07:15:35;;;;;;;12.33;11.10;;;14.80;99.90;;;;;;5051724;28;20190;-72
2021/08/27 07:18:01;;;;;;;18.30;12.37;;;14.60;99.90;;;;;;5051035;28;20490;-74
2021/08/27 07:20:27;;;;;;;16.05;12.40;;;14.70;99.90;;;;;;5050009;28;20412;-73
2021/08/27 07:22:54;;;;;;;16.80;11.67;;;14.90;99.90;;;;;;5050708;28;20289;-72
2021/08/27 07:25:19;;;;;;;10.30;9.30;;;15.00;99.90;;;;;;5037509;28;20486;-66
2021/08/27 07:27:46;;;;;;;14.17;9.90;;;15.00;99.90;;;;;;5044319;28;20846;-66
2021/08/27 07:30:12;;;;;;;9.80;8.80;;;15.10;99.90;;;;;;5041812;28;20555;-65
2021/08/27 07:32:38;;;;;;;13.23;9.40;;;15.00;99.90;;;;;;5034079;28;20462;-66
2021/08/27 07:35:04;;;;;;;15.83;9.57;;;15.10;99.90;;;;;;5053165;28;20197;-73
2021/08/27 07:37:31;;;;;;;17.10;9.87;;;15.10;99.90;;;;;;5070804;28;20196;-72
2021/08/27 07:39:57;;;;;;;11.73;8.90;;;15.20;99.90;;;;;;5064446;28;20419;-74
2021/08/27 07:42:23;;;;;;;16.30;10.90;;;15.30;99.90;;;;;;5083461;28;20452;-73
2021/08/27 07:44:48;;;;;;;13.80;9.10;;;15.30;99.90;;;;;;5048191;28;20432;-73
2021/08/27 07:47:14;;;;;;;9.50;8.50;;;15.20;99.90;;;;;;5043841;28;20288;-74
2021/08/27 07:49:39;;;;;;;12.50;8.50;;;15.30;99.90;;;;;;5061924;28;20194;-73
2021/08/27 07:52:05;;;;;;;14.60;8.80;;;15.30;99.90;;;;;;5062097;28;20208;-74
2021/08/27 07:54:31;;;;;;;15.37;9.73;;;15.20;99.90;;;;;;5062068;28;20200;-73
2021/08/27 07:56:57;;;;;;;11.93;9.73;;;15.20;99.90;;;;;;5061583;28;20234;-73
2021/08/27 07:59:23;;;;;;;12.50;11.30;;;15.20;99.90;;;;;;5062729;28;20447;-74
2021/08/27 08:01:49;;;;;;;13.30;11.90;;;15.20;99.90;;;;;;5063509;28;20559;-74
2021/08/27 08:04:14;;;;;;;13.13;11.77;;;15.30;99.90;;;;;;5044867;28;20206;-74
2021/08/27 08:06:40;;;;;;;15.00;12.27;;;15.40;99.90;;;;;;5044766;28;20432;-73
2021/08/27 08:09:06;;;;;;;14.47;12.10;;;15.50;99.90;;;;;;5044769;28;20197;-73
2021/08/27 08:11:33;;;;;;;13.20;11.97;;;15.60;99.90;;;;;;5061783;28;20443;-74
2021/08/27 08:13:59;;;;;;;15.43;13.80;;;15.60;99.90;;;;;;5061987;28;20527;-73
2021/08/27 08:16:24;;;;;;;14.63;13.20;;;15.70;99.90;;;;;;5061531;28;20436;-73
2021/08/27 08:18:50;;;;;;;14.97;12.37;;;15.70;99.90;;;;;;5060355;28;20504;-74
2021/08/27 08:21:17;;;;;;;13.60;12.03;;;15.60;99.90;;;;;;5060806;28;20284;-73
2021/08/27 08:23:43;;;;;;;12.80;11.50;;;15.50;99.90;;;;;;5043098;28;20206;-73
2021/08/27 08:26:09;;;;;;;20.83;11.97;;;15.60;99.90;;;;;;5044128;28;20409;-73
2021/08/27 08:28:34;;;;;;;16.03;10.67;;;15.50;99.90;;;;;;5060904;28;20421;-74
2021/08/27 08:31:00;;;;;;;13.33;9.43;;;15.60;99.90;;;;;;5060815;28;20240;-73
2021/08/27 08:33:26;;;;;;;11.17;9.90;;;15.60;99.90;;;;;;5056528;28;20202;-74
2021/08/27 08:35:51;;;;;;;8.37;7.57;;;15.60;99.90;;;;;;5058701;28;20178;-74
2021/08/27 08:38:18;;;;;;;10.27;7.20;;;15.70;99.90;;;;;;5058115;28;20201;-73
2021/08/27 08:40:45;;;;;;;6.97;5.97;;;15.70;99.90;;;;;;5056070;28;20217;-74
2021/08/27 08:43:12;;;;;;;7.83;6.33;;;15.80;99.90;;;;;;5057388;28;20454;-73
2021/08/27 08:45:49;;;;;;;7.17;4.57;;;15.80;99.90;;;;;;5061816;28;20408;-74
2021/08/27 08:48:18;;;;;;;10.50;5.50;;;15.90;99.90;;;;;;5061445;28;20425;-72
2021/08/27 08:50:44;;;;;;;5.70;5.10;;;15.80;99.90;;;;;;5061550;28;20424;-73
2021/08/27 08:53:12;;;;;;;5.10;4.40;;;15.80;99.90;;;;;;5061289;28;20416;-74
2021/08/27 08:55:39;;;;;;;6.80;4.73;;;16.00;99.90;;;;;;5061533;28;20492;-73
2021/08/27 08:58:05;;;;;;;5.57;4.40;;;16.00;99.90;;;;;;5061783;28;20451;-73
2021/08/27 09:00:31;;;;;;;11.80;4.37;;;16.00;99.90;;;;;;5060600;28;20425;-73
2021/08/27 09:02:58;;;;;;;6.33;4.27;;;15.90;99.90;;;;;;5060939;28;20610;-73
2021/08/27 09:05:24;;;;;;;6.60;4.33;;;15.80;99.90;;;;;;5061295;28;20162;-74
2021/08/27 09:07:49;;;;;;;5.63;3.73;;;15.90;99.90;;;;;;5061164;28;20448;-74
2021/08/27 09:10:20;;;;;;;8.43;3.13;;;15.90;99.90;;;;;;5043594;28;20219;-73
2021/08/27 09:12:46;;;;;;;4.33;3.30;;;15.80;99.90;;;;;;5061298;28;20236;-73
2021/08/27 09:15:13;;;;;;;7.10;3.17;;;15.80;99.90;;;;;;5060896;28;20459;-72
2021/08/27 09:17:39;;;;;;;7.60;4.20;;;15.90;99.90;;;;;;5062172;28;20416;-73
2021/08/27 09:20:08;;;;;;;5.30;3.53;;;16.10;99.90;;;;;;5061886;28;20456;-74
2021/08/27 09:22:54;;;;;;;10.80;4.03;;;16.30;99.90;;;;;;5061871;28;20578;-72
2021/08/27 09:25:22;;;;;;;6.60;3.83;;;16.40;99.90;;;;;;5042791;28;20405;-74
2021/08/27 09:28:09;;;;;;;4.30;3.87;;;16.50;99.90;;;;;;5043572;28;20410;-74
2021/08/27 09:30:53;;;;;;;5.90;3.70;;;16.60;99.90;;;;;;5024238;28;20446;-73
2021/08/27 09:33:34;;;;;;;6.27;3.93;;;16.50;99.90;;;;;;5043029;28;20416;-73
2021/08/27 09:36:06;;;;;;;4.20;3.07;;;16.40;99.90;;;;;;5022786;28;20440;-73
2021/08/27 09:38:37;;;;;;;7.17;4.10;;;16.50;99.90;;;;;;5041579;28;20822;-74
2021/08/27 09:41:09;;;;;;;5.23;4.07;;;16.60;99.90;;;;;;5039735;28;20438;-73
2021/08/27 09:43:52;;;;;;;6.50;4.47;;;16.80;99.90;;;;;;5042465;28;20481;-74
2021/08/27 09:46:29;;;;;;;9.63;4.40;;;16.90;99.90;;;;;;5042196;28;20413;-73
2021/08/27 09:48:55;;;;;;;7.03;3.73;;;17.00;99.90;;;;;;5042321;28;20879;-73
2021/08/27 09:51:41;;;;;;;5.20;3.80;;;17.00;99.90;;;;;;5043622;28;20445;-73
2021/08/27 09:54:07;;;;;;;4.83;4.40;;;16.90;99.90;;;;;;5044045;28;20192;-74
2021/08/27 09:56:52;;;;;;;6.10;4.60;;;16.80;99.90;;;;;;5063081;28;20431;-73
2021/08/27 09:59:18;;;;;;;6.60;4.60;;;16.90;99.90;;;;;;5062520;28;20447;-73
2021/08/27 10:01:50;;;;;;;7.10;5.07;;;17.00;99.90;;;;;;5063980;28;20917;-73
2021/08/27 10:04:17;;;;;;;7.30;5.47;;;16.90;99.90;;;;;;5063825;28;20527;-72
2021/08/27 10:06:43;;;;;;;5.43;5.03;;;16.90;99.90;;;;;;5065080;28;20423;-73
2021/08/27 10:09:09;;;;;;;5.63;4.50;;;17.00;99.90;;;;;;5046736;28;20420;-73
2021/08/27 10:11:35;;;;;;;6.50;5.13;;;17.10;99.90;;;;;;5045805;28;20857;-72
2021/08/27 10:14:01;;;;;;;3.20;2.53;;;17.40;99.90;;;;;;5064826;28;20229;-73
2021/08/27 10:16:30;;;;;;;2.93;2.63;;;17.40;99.90;;;;;;5064040;28;20416;-73
2021/08/27 10:18:56;;;;;;;3.03;2.27;;;17.40;99.90;;;;;;5046451;28;20432;-73
2021/08/27 10:21:22;;;;;;;6.23;2.90;;;17.40;99.90;;;;;;5065015;28;20433;-73
2021/08/27 10:23:48;;;;;;;8.20;2.67;;;17.40;99.90;;;;;;5064240;28;20452;-73
2021/08/27 10:26:16;;;;;;;3.80;2.73;;;17.50;99.90;;;;;;5063660;28;20876;-73
2021/08/27 10:28:42;;;;;;;3.60;3.23;;;17.30;99.90;;;;;;5063508;28;20174;-73
2021/08/27 10:31:07;;;;;;;4.50;2.60;;;17.30;99.90;;;;;;5064346;28;20424;-72
2021/08/27 10:33:42;;;;;;;4.60;2.97;;;17.30;99.90;;;;;;5064120;28;20470;-72
2021/08/27 10:36:09;;;;;;;5.30;2.70;;;17.10;99.90;;;;;;5065651;28;20173;-72
2021/08/27 10:38:45;;;;;;;6.10;2.57;;;16.70;99.90;;;;;;5064921;28;20497;-73
2021/08/27 10:41:20;;;;;;;3.47;2.40;;;16.30;99.90;;;;;;5047699;28;20428;-72
2021/08/27 10:43:57;;;;;;;6.93;2.90;;;16.00;99.90;;;;;;5064363;28;20498;-73
2021/08/27 10:46:43;;;;;;;5.43;3.00;;;16.00;99.90;;;;;;5063162;28;20477;-72
2021/08/27 10:49:14;;;;;;;4.60;2.40;;;15.80;99.90;;;;;;5062871;28;20265;-73
2021/08/27 10:51:41;;;;;;;6.10;2.97;;;15.70;99.90;;;;;;5062148;28;20439;-73
2021/08/27 10:54:09;;;;;;;4.50;2.90;;;15.80;99.90;;;;;;5066313;28;20868;-73
2021/08/27 10:56:41;;;;;;;5.97;3.03;;;16.00;99.90;;;;;;5059930;28;20415;-72
2021/08/27 10:59:08;;;;;;;6.85;3.50;;;16.20;99.90;;;;;;5037484;28;20423;-74
2021/08/27 11:01:39;;;;;;;4.50;3.50;;;16.50;99.90;;;;;;5056359;28;20685;-74
2021/08/27 11:04:24;;;;;;;5.37;3.60;;;16.80;99.90;;;;;;5038321;28;20521;-74
2021/08/27 11:07:20;;;;;;;6.60;4.00;;;16.90;99.90;;;;;;5055581;28;20393;-74
2021/08/27 11:09:59;;;;;;;5.88;4.43;;;17.00;99.90;;;;;;5052985;28;20472;-73
2021/08/27 11:12:29;;;;;;;6.87;3.70;;;16.90;99.90;;;;;;5039746;28;20198;-74
2021/08/27 11:14:55;;;;;;;3.20;2.90;;;16.80;99.90;;;;;;5061794;28;20408;-73
2021/08/27 11:17:21;;;;;;;6.22;3.80;;;16.70;99.90;;;;;;5059286;28;20408;-73
2021/08/27 11:19:58;;;;;;;6.03;3.30;;;16.60;99.90;;;;;;5059854;28;20240;-73
2021/08/27 11:22:31;;;;;;;4.40;3.27;;;16.50;99.90;;;;;;5052825;28;20467;-74
2021/08/27 11:25:10;;;;;;;4.37;3.80;;;16.60;99.90;;;;;;5061521;28;20424;-73
2021/08/27 11:27:36;;;;;;;5.10;2.50;;;16.80;99.90;;;;;;5062504;28;20420;-74
2021/08/27 11:30:27;;;;;;;4.37;2.57;;;16.90;99.90;;;;;;5060268;28;20452;-74
2021/08/27 11:32:54;;;;;;;5.53;2.60;;;17.10;99.90;;;;;;5061990;28;20415;-74
2021/08/27 11:35:20;;;;;;;2.77;2.10;;;17.00;99.90;;;;;;5061138;28;20411;-74
2021/08/27 11:37:48;;;;;;;3.97;1.70;;;16.90;99.90;;;;;;5059359;28;20436;-74
2021/08/27 11:40:14;;;;;;;4.33;2.27;;;16.70;99.90;;;;;;5060576;28;20187;-73
2021/08/27 11:42:44;;;;;;;3.63;2.00;;;16.80;99.90;;;;;;5055137;28;20473;-73
2021/08/27 11:45:14;;;;;;;3.43;2.03;;;16.80;99.90;;;;;;5041351;28;20402;-72
2021/08/27 11:47:48;;;;;;;3.50;1.80;;;17.00;99.90;;;;;;5040216;28;20926;-73
2021/08/27 11:50:23;;;;;;;3.13;2.13;;;17.10;99.90;;;;;;5040434;28;20452;-73
2021/08/27 11:52:52;;;;;;;2.70;1.83;;;17.40;99.90;;;;;;5053798;28;20408;-74
2021/08/27 11:55:18;;;;;;;3.00;1.93;;;17.50;99.90;;;;;;5039505;28;20519;-74
2021/08/27 11:58:02;;;;;;;2.27;1.40;;;17.60;99.90;;;;;;5038854;28;20499;-73
2021/08/27 12:00:31;;;;;;;3.30;1.80;;;17.70;99.90;;;;;;5036988;28;20425;-73
2021/08/27 12:02:57;;;;;;;2.10;1.60;;;17.80;99.90;;;;;;5041050;28;20441;-73
2021/08/27 12:05:24;;;;;;;4.30;1.67;;;18.00;99.90;;;;;;5056418;28;20447;-73
2021/08/27 12:07:58;;;;;;;3.23;1.93;;;18.00;99.90;;;;;;5061399;28;20408;-73
2021/08/27 12:10:25;;;;;;;4.33;1.73;;;18.00;99.90;;;;;;5061239;28;20429;-73
2021/08/27 12:12:53;;;;;;;6.47;2.27;;;18.00;99.90;;;;;;5043653;28;20464;-73
2021/08/27 12:15:24;;;;;;;1.90;1.60;;;18.00;99.90;;;;;;5062362;28;20436;-73
2021/08/27 12:17:59;;;;;;;4.10;1.90;;;18.00;99.90;;;;;;5061403;28;20735;-73
2021/08/27 12:20:29;;;;;;;7.10;2.20;;;18.00;99.90;;;;;;5044258;28;20515;-73
2021/08/27 12:23:16;;;;;;;2.67;1.53;;;18.20;99.90;;;;;;5061935;28;20512;-73
2021/08/27 12:25:45;;;;;;;1.73;1.43;;;18.40;99.90;;;;;;5061804;28;20420;-73
2021/08/27 12:28:14;;;;;;;2.07;1.50;;;18.60;99.90;;;;;;5061608;28;20474;-72
2021/08/27 12:30:49;;;;;;;1.80;1.70;;;18.70;99.90;;;;;;5043038;28;20845;-73
2021/08/27 12:33:15;;;;;;;2.03;1.90;;;18.80;99.90;;;;;;5061883;28;20404;-74
2021/08/27 12:35:42;;;;;;;2.60;2.40;;;18.80;99.90;;;;;;5060652;28;20409;-74
2021/08/27 12:38:08;;;;;;;6.37;3.20;;;18.80;99.90;;;;;;5060428;28;20444;-74
2021/08/27 12:40:34;;;;;;;3.23;2.73;;;18.80;99.90;;;;;;5042166;28;20429;-73
2021/08/27 12:43:09;;;;;;;2.73;2.07;;;18.50;99.90;;;;;;5041761;28;20452;-73
2021/08/27 12:46:00;;;;;;;3.00;2.80;;;18.40;99.90;;;;;;5060475;28;20404;-73
2021/08/27 12:48:28;;;;;;;6.83;3.10;;;18.30;99.90;;;;;;5039496;28;20429;-74
2021/08/27 12:51:00;;;;;;;3.67;3.37;;;18.30;99.90;;;;;;5059052;28;20433;-73